Time;durP1;ratioP1;P1;durP2;ratioP2;P2;SDS_P1;SDS_P2;PMS_P1;PMS_P2;Temp;Humidity;BMP_temperature;BMP_pressure;BME280_temperature;BME280_humidity;BME280_pressure;Samples;Min_cycle;Max_cycle;Signal;HPM_P1;HPM_P2
2022/09/07 00:02:22;;;;;;;11.63;6.08;;;;;;;8.81;63.44;101314.45;1793822;78;21045;-71
2022/09/07 00:04:48;;;;;;;10.00;6.28;;;;;;;8.81;63.50;101315.79;1817608;78;21057;-71
2022/09/07 00:07:15;;;;;;;10.03;5.95;;;;;;;8.82;63.60;101311.58;1785906;80;21752;-70
2022/09/07 00:09:42;;;;;;;8.08;5.60;;;;;;;8.84;63.68;101308.68;1788399;80;21449;-71
2022/09/07 00:12:09;;;;;;;11.25;6.15;;;;;;;8.84;63.70;101315.34;1821808;78;21003;-71
2022/09/07 00:14:37;;;;;;;11.68;6.90;;;;;;;8.82;63.73;101311.58;1823284;78;20984;-70
2022/09/07 00:17:04;;;;;;;10.32;7.08;;;;;;;8.82;63.79;101314.77;1784720;78;22100;-71
2022/09/07 00:19:31;;;;;;;11.15;6.97;;;;;;;8.82;63.83;101316.10;1761410;80;21556;-71
2022/09/07 00:21:57;;;;;;;10.65;6.87;;;;;;;8.80;63.82;101317.64;1809136;78;21003;-70
2022/09/07 00:24:24;;;;;;;11.10;6.75;;;;;;;8.81;63.94;101320.59;1823672;78;21019;-70
2022/09/07 00:26:54;;;;;;;12.13;7.05;;;;;;;8.82;64.08;101317.44;1768547;80;21020;-71
2022/09/07 00:29:21;;;;;;;10.28;6.90;;;;;;;8.81;64.14;101316.59;1740587;80;21076;-71
2022/09/07 00:31:47;;;;;;;9.50;5.90;;;;;;;8.82;64.19;101318.77;1812433;78;21471;-71
2022/09/07 00:34:14;;;;;;;10.10;6.50;;;;;;;8.83;64.13;101310.53;1808801;78;20928;-71
2022/09/07 00:36:40;;;;;;;12.47;7.30;;;;;;;8.86;64.09;101311.94;1787603;79;21033;-71
2022/09/07 00:39:07;;;;;;;10.35;7.30;;;;;;;8.87;63.97;101308.23;1809230;79;21014;-71
2022/09/07 00:41:34;;;;;;;10.48;6.80;;;;;;;8.87;63.88;101309.56;1803035;79;20964;-71
2022/09/07 00:44:43;;;;;;;10.70;6.53;;;;;;;8.83;63.76;101307.87;1780874;80;21786;-72
2022/09/07 00:47:24;;;;;;;15.20;6.80;;;;;;;8.71;63.70;101308.34;1792973;79;21035;-71
2022/09/07 00:49:55;;;;;;;10.25;6.40;;;;;;;8.54;63.91;101308.16;1793715;78;20980;-71
2022/09/07 00:52:22;;;;;;;9.10;6.33;;;;;;;8.52;64.03;101303.56;1799319;78;21006;-71
2022/09/07 00:54:53;;;;;;;8.45;6.40;;;;;;;8.52;64.04;101300.91;1784699;78;21059;-71
2022/09/07 00:57:21;;;;;;;9.20;6.62;;;;;;;8.50;64.03;101303.00;1792870;80;21124;-71
2022/09/07 00:59:50;;;;;;;9.55;6.30;;;;;;;8.49;64.09;101296.05;1812904;77;20936;-72
2022/09/07 01:02:17;;;;;;;9.20;7.08;;;;;;;8.50;64.11;101295.01;1803527;78;21062;-71
2022/09/07 01:04:46;;;;;;;8.85;6.37;;;;;;;8.52;64.12;101296.91;1793257;80;20979;-71
2022/09/07 01:07:12;;;;;;;9.98;6.40;;;;;;;8.52;64.12;101291.58;1792953;78;21046;-70
2022/09/07 01:09:39;;;;;;;11.28;7.22;;;;;;;8.54;64.18;101297.51;1791565;80;21751;-71
2022/09/07 01:12:07;;;;;;;10.60;7.42;;;;;;;8.55;64.16;101296.98;1772699;78;21537;-71
2022/09/07 01:14:40;;;;;;;10.13;7.25;;;;;;;8.54;64.19;101293.52;1793072;80;20995;-71
2022/09/07 01:17:57;;;;;;;9.38;6.85;;;;;;;8.54;64.22;101291.37;1801768;78;21486;-72
2022/09/07 01:20:49;;;;;;;10.63;7.30;;;;;;;8.49;64.17;101292.55;1789525;78;21303;-72
2022/09/07 01:24:13;;;;;;;11.15;6.95;;;;;;;8.41;64.04;101279.05;1825719;78;20971;-71
2022/09/07 01:27:07;;;;;;;11.12;6.97;;;;;;;8.35;63.98;101286.56;1788858;80;20952;-71
2022/09/07 01:30:02;;;;;;;10.93;7.28;;;;;;;8.29;64.00;101283.45;1786289;79;21518;-71
2022/09/07 01:33:14;;;;;;;10.75;7.28;;;;;;;8.25;64.11;101280.95;1784587;78;21549;-71
2022/09/07 01:35:55;;;;;;;11.28;8.20;;;;;;;8.24;64.21;101278.81;1824283;78;21032;-70
2022/09/07 01:38:33;;;;;;;11.20;7.58;;;;;;;8.26;64.30;101283.41;1793029;80;21210;-71
2022/09/07 01:41:04;;;;;;;11.68;7.78;;;;;;;8.25;64.28;101278.30;1792035;79;21515;-71
2022/09/07 01:44:13;;;;;;;12.73;7.65;;;;;;;8.18;64.23;101277.86;1811499;78;21023;-71
2022/09/07 01:47:03;;;;;;;10.60;7.12;;;;;;;8.11;64.12;101277.13;1793233;78;21050;-71
2022/09/07 01:49:44;;;;;;;9.75;6.72;;;;;;;8.03;64.06;101276.11;1773819;78;21086;-71
2022/09/07 01:52:25;;;;;;;7.87;6.65;;;;;;;7.93;63.94;101273.13;1797851;78;21089;-71
2022/09/07 01:55:09;;;;;;;9.88;6.92;;;;;;;7.82;64.00;101272.55;1791991;78;20979;-70
2022/09/07 01:57:43;;;;;;;9.18;6.58;;;;;;;7.75;64.06;101272.09;1795816;78;20984;-70
2022/09/07 02:00:13;;;;;;;10.88;6.72;;;;;;;7.69;64.15;101267.65;1794362;78;20961;-71
2022/09/07 02:02:48;;;;;;;11.10;7.15;;;;;;;7.65;64.24;101269.12;1814974;78;21079;-71
2022/09/07 02:05:22;;;;;;;10.55;7.25;;;;;;;7.65;64.30;101266.99;1789625;79;21666;-70
2022/09/07 02:08:01;;;;;;;11.18;7.37;;;;;;;7.65;64.34;101269.12;1800210;78;21523;-71
2022/09/07 02:10:49;;;;;;;9.55;7.15;;;;;;;7.67;64.41;101268.41;1783203;80;21034;-71
2022/09/07 02:13:24;;;;;;;10.95;7.85;;;;;;;7.67;64.32;101273.72;1793028;80;20983;-70
2022/09/07 02:15:57;;;;;;;9.00;6.78;;;;;;;7.67;64.32;101268.41;1792945;80;21293;-70
2022/09/07 02:18:24;;;;;;;11.48;7.47;;;;;;;7.66;64.26;101265.43;1791004;80;21127;-71
2022/09/07 02:20:53;;;;;;;11.43;8.20;;;;;;;7.63;64.20;101263.20;1785147;80;20999;-71
2022/09/07 02:23:27;;;;;;;12.58;9.28;;;;;;;7.64;64.12;101260.06;1765434;80;21035;-71
2022/09/07 02:26:08;;;;;;;13.05;9.33;;;;;;;7.63;64.11;101259.22;1790775;80;21109;-70
2022/09/07 02:28:36;;;;;;;11.00;8.65;;;;;;;7.64;64.09;101261.39;1781825;80;21125;-70
2022/09/07 02:31:02;;;;;;;11.97;8.88;;;;;;;7.65;64.05;101264.33;1793149;80;22027;-71
2022/09/07 02:33:30;;;;;;;12.15;8.85;;;;;;;7.65;64.00;101259.83;1793084;80;21498;-70
2022/09/07 02:35:58;;;;;;;12.05;9.18;;;;;;;7.65;63.91;101257.16;1793149;80;21004;-70
2022/09/07 02:38:25;;;;;;;11.65;9.13;;;;;;;7.65;63.90;101262.48;1801387;78;21007;-70
2022/09/07 02:40:57;;;;;;;11.70;8.45;;;;;;;7.64;63.86;101256.87;1793437;80;21038;-70
2022/09/07 02:43:24;;;;;;;12.15;8.88;;;;;;;7.62;63.75;101258.93;1793080;80;21225;-70
2022/09/07 02:46:27;;;;;;;13.55;9.48;;;;;;;7.56;63.61;101254.48;1793078;79;21154;-70
2022/09/07 02:49:50;;;;;;;14.47;9.83;;;;;;;7.40;63.57;101263.83;1793171;80;20943;-70
2022/09/07 02:52:40;;;;;;;;;;;;;;;7.22;63.74;101265.13;1813845;78;21046;-70
2022/09/07 02:55:44;;;;;;;12.63;10.10;;;;;;;7.12;63.90;101265.62;1769758;80;20124;-70
2022/09/07 02:59:04;;;;;;;15.28;10.55;;;;;;;7.06;63.94;101258.51;1787144;80;21756;-70
2022/09/07 03:01:43;;;;;;;14.38;10.68;;;;;;;6.97;64.04;101255.30;1823494;78;21000;-69
2022/09/07 03:04:54;;;;;;;13.65;10.32;;;;;;;6.91;64.26;101258.84;1814223;78;21604;-69
2022/09/07 03:07:29;;;;;;;13.13;10.08;;;;;;;6.88;64.34;101254.44;1793231;80;21030;-69
2022/09/07 03:09:56;;;;;;;16.32;10.80;;;;;;;6.78;64.46;101263.72;1772215;80;20932;-68
2022/09/07 03:12:23;;;;;;;15.08;11.28;;;;;;;6.73;64.60;101264.05;1791441;80;21900;-69
2022/09/07 03:14:50;;;;;;;16.42;12.28;;;;;;;6.68;64.75;101258.06;1798506;78;21113;-69
2022/09/07 03:17:17;;;;;;;13.90;10.80;;;;;;;6.66;64.93;101256.65;1770254;80;20999;-69
2022/09/07 03:19:43;;;;;;;15.23;11.08;;;;;;;6.68;65.03;101261.21;1823477;78;20960;-69
2022/09/07 03:22:10;;;;;;;15.10;11.20;;;;;;;6.70;65.08;101265.80;1815981;78;21115;-69
2022/09/07 03:24:37;;;;;;;15.05;11.10;;;;;;;6.76;65.17;101259.64;1820755;78;21796;-69
2022/09/07 03:27:04;;;;;;;15.05;11.22;;;;;;;6.84;65.13;101261.22;1792749;80;21020;-69
2022/09/07 03:29:31;;;;;;;14.90;11.68;;;;;;;6.86;65.08;101263.97;1806954;79;21518;-69
2022/09/07 03:31:58;;;;;;;15.03;11.25;;;;;;;6.90;65.02;101255.05;1794574;79;21474;-69
2022/09/07 03:34:24;;;;;;;13.98;9.83;;;;;;;6.94;64.99;101254.91;1764889;80;21526;-69
2022/09/07 03:36:51;;;;;;;14.45;11.05;;;;;;;6.92;64.92;101253.81;1804182;78;21832;-69
2022/09/07 03:39:21;;;;;;;17.50;11.85;;;;;;;6.90;64.98;101251.07;1790850;80;21519;-69
2022/09/07 03:41:46;;;;;;;16.42;11.80;;;;;;;6.93;64.98;101253.30;1816714;78;21043;-69
2022/09/07 03:44:13;;;;;;;14.73;11.25;;;;;;;6.96;65.09;101254.20;1786194;80;21033;-69
2022/09/07 03:46:40;;;;;;;16.75;12.47;;;;;;;7.02;65.15;101254.66;1824167;77;20951;-69
2022/09/07 03:49:07;;;;;;;17.27;12.00;;;;;;;7.09;65.24;101256.75;1807500;78;21256;-70
2022/09/07 03:51:34;;;;;;;16.40;13.00;;;;;;;7.14;65.18;101262.23;1800115;78;21372;-69
2022/09/07 03:54:00;;;;;;;16.20;12.73;;;;;;;7.13;65.07;101258.45;1792667;79;21494;-70
2022/09/07 03:56:27;;;;;;;16.30;12.07;;;;;;;7.16;65.02;101270.79;1807760;78;21023;-69
2022/09/07 03:58:54;;;;;;;15.40;12.25;;;;;;;7.22;64.97;101269.92;1813460;78;20939;-69
2022/09/07 04:01:23;;;;;;;16.02;12.07;;;;;;;7.28;64.98;101269.06;1771403;78;21160;-69
2022/09/07 04:03:50;;;;;;;16.10;12.13;;;;;;;7.34;64.99;101267.39;1794502;78;21119;-69
2022/09/07 04:06:17;;;;;;;15.60;12.07;;;;;;;7.42;64.98;101268.95;1824776;77;20987;-68
2022/09/07 04:08:43;;;;;;;16.37;12.43;;;;;;;7.46;65.06;101270.13;1781440;78;21047;-69
2022/09/07 04:11:13;;;;;;;16.93;12.37;;;;;;;7.50;65.31;101262.01;1795430;78;21004;-69
2022/09/07 04:13:40;;;;;;;18.27;12.90;;;;;;;7.59;65.54;101271.85;1794521;78;21766;-69
2022/09/07 04:16:19;;;;;;;17.85;12.47;;;;;;;7.68;65.86;101267.36;1782864;80;20941;-69
2022/09/07 04:18:48;;;;;;;19.17;12.60;;;;;;;7.81;66.12;101269.08;1787165;78;21013;-70
2022/09/07 04:21:17;;;;;;;16.05;11.85;;;;;;;7.97;66.27;101270.34;1790378;80;20992;-69
2022/09/07 04:23:44;;;;;;;16.40;12.10;;;;;;;8.12;66.41;101269.43;1799990;78;20983;-69
2022/09/07 04:26:16;;;;;;;16.57;11.43;;;;;;;8.28;66.40;101272.53;1798919;78;21462;-69
2022/09/07 04:28:44;;;;;;;15.90;11.80;;;;;;;8.45;66.36;101274.89;1801113;78;21399;-69
2022/09/07 04:31:12;;;;;;;17.57;11.70;;;;;;;8.58;66.34;101274.71;1794415;78;21000;-69
2022/09/07 04:33:38;;;;;;;15.80;10.75;;;;;;;8.74;66.31;101271.93;1778857;78;21128;-70
2022/09/07 04:36:08;;;;;;;17.77;10.65;;;;;;;8.91;66.17;101269.43;1820619;78;21026;-70
2022/09/07 04:38:35;;;;;;;14.73;9.88;;;;;;;9.08;66.01;101271.74;1792909;80;21114;-69
2022/09/07 04:41:08;;;;;;;17.75;11.38;;;;;;;9.26;65.72;101274.02;1799779;78;21056;-70
2022/09/07 04:43:36;;;;;;;17.77;10.18;;;;;;;9.42;65.50;101272.53;1825483;78;21696;-69
2022/09/07 04:46:18;;;;;;;16.95;9.60;;;;;;;9.57;65.41;101272.33;1770122;80;21068;-70
2022/09/07 04:48:50;;;;;;;11.43;7.83;;;;;;;9.76;65.13;101279.69;1781354;78;21435;-70
2022/09/07 04:51:17;;;;;;;11.12;7.10;;;;;;;9.91;64.64;101272.55;1762304;80;21124;-69
2022/09/07 04:53:49;;;;;;;11.48;7.33;;;;;;;10.06;64.19;101271.52;1814747;78;21439;-70
2022/09/07 04:56:17;;;;;;;12.88;6.85;;;;;;;10.21;63.90;101271.03;1779243;80;21126;-69
2022/09/07 04:58:44;;;;;;;10.00;6.85;;;;;;;10.37;63.42;101271.37;1790164;78;20983;-68
2022/09/07 05:01:14;;;;;;;11.00;6.87;;;;;;;10.47;62.89;101265.69;1790058;78;21007;-71
2022/09/07 05:03:40;;;;;;;12.23;6.90;;;;;;;10.59;62.46;101260.80;1781518;78;21222;-70
2022/09/07 05:06:08;;;;;;;10.15;6.90;;;;;;;10.69;61.88;101267.67;1813848;78;20948;-70
2022/09/07 05:08:44;;;;;;;13.83;6.80;;;;;;;10.78;61.52;101264.36;1790734;78;21052;-71
2022/09/07 05:11:11;;;;;;;12.63;6.92;;;;;;;10.92;61.25;101268.88;1793020;80;21029;-71
2022/09/07 05:13:38;;;;;;;9.63;5.95;;;;;;;11.07;60.70;101264.84;1825657;78;21085;-70
2022/09/07 05:16:19;;;;;;;9.43;5.80;;;;;;;11.17;59.70;101271.70;1792925;80;21263;-72
2022/09/07 05:18:50;;;;;;;9.33;6.15;;;;;;;11.22;59.05;101270.42;1792872;79;21663;-71
2022/09/07 05:21:20;;;;;;;9.40;5.87;;;;;;;11.30;58.85;101261.20;1825981;78;21034;-71
2022/09/07 05:23:52;;;;;;;9.25;5.20;;;;;;;11.42;58.63;101263.27;1825321;78;21180;-70
2022/09/07 05:26:20;;;;;;;8.98;5.85;;;;;;;11.49;57.63;101263.91;1794695;78;21029;-71
2022/09/07 05:28:47;;;;;;;9.03;5.75;;;;;;;11.56;57.10;101263.73;1792833;80;21125;-71
2022/09/07 05:31:17;;;;;;;9.65;5.90;;;;;;;11.66;57.13;101264.67;1825805;78;21038;-72
2022/09/07 05:33:47;;;;;;;10.60;6.10;;;;;;;11.72;56.22;101257.53;1792774;80;21432;-70
2022/09/07 05:36:14;;;;;;;11.03;6.33;;;;;;;11.79;55.84;101261.36;1793064;80;21037;-71
2022/09/07 05:38:41;;;;;;;9.75;6.20;;;;;;;11.83;55.01;101257.94;1825488;78;20995;-72
2022/09/07 05:41:15;;;;;;;9.23;6.17;;;;;;;11.93;54.97;101251.40;1793119;80;21777;-71
2022/09/07 05:43:42;;;;;;;8.50;5.83;;;;;;;12.05;54.36;101256.64;1792198;80;21019;-71
2022/09/07 05:46:09;;;;;;;8.28;5.95;;;;;;;12.12;53.57;101254.58;1826537;78;21043;-72
2022/09/07 05:48:36;;;;;;;9.95;5.85;;;;;;;12.18;52.43;101254.13;1789143;80;21022;-72
2022/09/07 05:51:02;;;;;;;9.48;5.20;;;;;;;12.22;51.94;101247.20;1791524;80;21070;-72
2022/09/07 05:53:29;;;;;;;7.87;5.58;;;;;;;12.30;52.48;101246.73;1768249;78;21086;-72
2022/09/07 05:55:59;;;;;;;8.10;5.00;;;;;;;12.42;51.70;101254.64;1761860;80;20953;-72
2022/09/07 05:58:27;;;;;;;7.37;5.25;;;;;;;12.54;51.87;101246.47;1792972;80;21518;-72
2022/09/07 06:01:08;;;;;;;8.15;4.92;;;;;;;12.64;51.46;101245.23;1816421;78;21015;-71
2022/09/07 06:03:37;;;;;;;8.15;5.50;;;;;;;12.75;51.35;101246.13;1793117;80;21467;-72
2022/09/07 06:06:06;;;;;;;7.00;4.60;;;;;;;12.91;50.98;101246.00;1793171;80;21769;-72
2022/09/07 06:08:36;;;;;;;6.62;4.40;;;;;;;13.06;50.45;101246.67;1825398;78;21010;-72
2022/09/07 06:11:07;;;;;;;7.55;4.58;;;;;;;13.20;50.34;101249.72;1793216;80;21036;-72
2022/09/07 06:13:34;;;;;;;7.22;4.40;;;;;;;13.35;49.85;101257.08;1793489;80;20982;-72
2022/09/07 06:16:01;;;;;;;7.70;4.35;;;;;;;13.45;48.98;101249.09;1825904;78;21027;-71
2022/09/07 06:18:35;;;;;;;7.28;4.70;;;;;;;13.54;48.30;101250.23;1794246;78;21245;-71
2022/09/07 06:21:08;;;;;;;7.50;4.80;;;;;;;13.64;47.93;101253.50;1824822;78;21050;-71
2022/09/07 06:23:36;;;;;;;7.03;4.03;;;;;;;13.74;48.01;101253.55;1826027;78;21470;-73
2022/09/07 06:26:04;;;;;;;5.70;3.70;;;;;;;13.87;48.17;101254.97;1793316;80;21410;-72
2022/09/07 06:28:34;;;;;;;6.70;4.30;;;;;;;14.03;47.77;101251.27;1793428;80;21255;-70
2022/09/07 06:31:08;;;;;;;7.53;4.27;;;;;;;14.15;46.49;101249.72;1825695;78;21306;-74
2022/09/07 06:33:35;;;;;;;6.60;3.97;;;;;;;14.22;46.84;101255.64;1793431;78;21288;-72
2022/09/07 06:36:05;;;;;;;6.07;3.63;;;;;;;14.34;46.68;101252.70;1793436;80;21338;-72
2022/09/07 06:38:36;;;;;;;6.30;3.83;;;;;;;14.45;46.46;101252.22;1825759;78;21206;-71
2022/09/07 06:41:16;;;;;;;6.53;3.87;;;;;;;14.58;45.61;101251.73;1793314;80;21252;-70
2022/09/07 06:43:44;;;;;;;6.60;4.20;;;;;;;14.70;45.33;101256.84;1793305;80;22119;-72
2022/09/07 06:46:11;;;;;;;7.23;3.90;;;;;;;14.85;45.28;101260.09;1825757;78;21253;-71
2022/09/07 06:48:38;;;;;;;7.13;4.20;;;;;;;14.97;44.40;101260.11;1770710;80;21326;-74
2022/09/07 06:51:10;;;;;;;7.37;4.13;;;;;;;15.08;44.41;101258.21;1790620;79;21252;-72
2022/09/07 06:53:37;;;;;;;5.87;3.57;;;;;;;15.21;44.48;101260.36;1825723;78;21247;-72
2022/09/07 06:56:07;;;;;;;5.40;3.30;;;;;;;15.33;43.72;101256.02;1825943;78;21198;-73
2022/09/07 06:58:37;;;;;;;5.83;3.00;;;;;;;15.44;43.54;101256.83;1825853;78;21352;-71
2022/09/07 07:01:13;;;;;;;5.77;2.80;;;;;;;15.55;42.76;101262.45;1825892;78;21126;-72
2022/09/07 07:03:41;;;;;;;5.00;2.70;;;;;;;15.68;42.89;101253.03;1825701;78;21560;-72
2022/09/07 07:06:10;;;;;;;5.77;2.93;;;;;;;15.83;41.50;101249.49;1825558;78;21237;-72
2022/09/07 07:08:44;;;;;;;5.87;3.03;;;;;;;15.93;40.81;101254.84;1824696;78;21191;-72
2022/09/07 07:11:14;;;;;;;4.47;2.60;;;;;;;16.02;40.65;101255.05;1825716;78;21232;-71
2022/09/07 07:13:47;;;;;;;5.50;2.40;;;;;;;16.12;40.22;101254.48;1826402;78;21203;-71
2022/09/07 07:16:16;;;;;;;4.87;3.10;;;;;;;16.21;39.77;101251.20;1827429;78;21157;-72
2022/09/07 07:18:55;;;;;;;4.90;2.63;;;;;;;16.31;39.89;101256.53;1826263;78;21230;-72
2022/09/07 07:21:23;;;;;;;4.57;2.30;;;;;;;16.40;39.54;101257.02;1739440;80;21239;-72
2022/09/07 07:23:54;;;;;;;4.60;2.37;;;;;;;16.49;39.39;101262.64;1825533;78;21162;-71
2022/09/07 07:26:25;;;;;;;3.87;2.40;;;;;;;16.60;39.39;101257.44;1824565;78;21349;-72
2022/09/07 07:28:56;;;;;;;3.70;2.13;;;;;;;16.69;38.66;101249.56;1825983;78;21450;-74
2022/09/07 07:31:31;;;;;;;3.87;2.20;;;;;;;16.77;38.61;101237.39;1826117;78;21822;-72
2022/09/07 07:34:02;;;;;;;4.73;2.37;;;;;;;16.87;37.75;101248.09;1825717;78;21341;-73
2022/09/07 07:36:36;;;;;;;3.77;2.20;;;;;;;16.91;37.46;101241.04;1826003;78;21381;-74
2022/09/07 07:39:11;;;;;;;4.00;2.40;;;;;;;17.13;37.52;101232.49;1824846;78;21481;-72
2022/09/07 07:41:38;;;;;;;4.60;2.47;;;;;;;17.26;36.91;101231.02;1824690;78;21576;-73
2022/09/07 07:44:12;;;;;;;3.90;2.33;;;;;;;17.35;36.77;101232.02;1825793;78;22190;-74
2022/09/07 07:46:49;;;;;;;4.10;2.40;;;;;;;17.35;36.77;101232.02;1825903;78;21494;-73
2022/09/07 07:49:18;;;;;;;5.17;2.47;;;;;;;17.44;35.96;101226.78;1806419;78;21654;-73
2022/09/07 07:51:57;;;;;;;3.90;2.07;;;;;;;17.52;35.14;101222.11;1761896;80;21728;-71
2022/09/07 07:54:35;;;;;;;4.23;2.20;;;;;;;17.52;35.14;101222.11;1793396;80;22277;-72
2022/09/07 07:57:05;;;;;;;4.00;2.30;;;;;;;17.56;34.90;101221.23;1767120;80;22270;-72
2022/09/07 07:59:40;;;;;;;4.40;2.10;;;;;;;17.66;35.55;101226.27;1793596;80;21677;-72
2022/09/07 08:02:20;;;;;;;3.40;2.00;;;;;;;17.81;35.57;101220.73;1825342;78;21737;-73
2022/09/07 08:04:51;;;;;;;3.77;1.90;;;;;;;17.95;35.38;101223.52;1799458;78;21007;-71
2022/09/07 08:07:26;;;;;;;4.80;2.13;;;;;;;18.08;34.65;101220.11;1793027;80;21706;-73
2022/09/07 08:10:00;;;;;;;5.03;1.70;;;;;;;18.15;33.65;101218.39;1793258;80;22199;-74
2022/09/07 08:12:38;;;;;;;4.37;2.00;;;;;;;18.27;34.33;101215.52;1798917;78;21682;-73
2022/09/07 08:15:17;;;;;;;3.67;1.97;;;;;;;18.40;32.91;101218.03;1793248;78;22197;-73
2022/09/07 08:17:51;;;;;;;3.00;1.83;;;;;;;18.49;32.84;101208.69;1808984;79;20956;-73
2022/09/07 08:20:36;;;;;;;2.83;1.50;;;;;;;18.64;31.96;101210.37;1793508;80;21677;-74
2022/09/07 08:23:14;;;;;;;3.83;1.87;;;;;;;18.76;31.89;101203.98;1825454;78;20947;-74
2022/09/07 08:25:54;;;;;;;3.73;2.00;;;;;;;18.90;32.02;101194.55;1798936;79;21246;-73
2022/09/07 08:31:06;;;;;;;2.23;1.40;;;;;;;19.04;31.33;101199.42;1809375;78;21514;-70
2022/09/07 08:33:36;;;;;;;3.73;1.73;;;;;;;19.10;29.63;101198.23;1810733;78;21048;-69
2022/09/07 08:36:17;;;;;;;2.62;1.17;;;;;;;18.99;28.36;101196.83;1800492;78;20984;-71
2022/09/07 08:38:43;;;;;;;2.47;1.43;;;;;;;18.78;28.59;101181.47;1768816;81;21230;-74
2022/09/07 08:41:43;;;;;;;5.80;2.10;;;;;;;18.69;29.44;101185.39;1787476;80;21181;-72
2022/09/07 08:44:27;;;;;;;2.97;1.93;;;;;;;18.73;30.23;101176.16;1788322;79;20964;-72
2022/09/07 08:47:02;;;;;;;4.07;2.20;;;;;;;18.88;30.27;101163.70;1792361;78;20968;-72
2022/09/07 08:49:46;;;;;;;4.17;2.07;;;;;;;19.06;29.43;101182.90;1825851;78;21625;-72
2022/09/07 08:52:27;;;;;;;3.83;2.07;;;;;;;19.02;28.94;101169.69;1825687;78;21078;-72
2022/09/07 08:55:17;;;;;;;2.80;1.85;;;;;;;18.95;29.21;101168.20;1787064;80;20944;-72
2022/09/07 08:57:49;;;;;;;4.33;2.10;;;;;;;18.97;29.62;101164.62;1756248;81;21055;-72
2022/09/07 09:00:17;;;;;;;4.40;2.43;;;;;;;19.04;28.50;101163.43;1756140;81;21446;-73
2022/09/07 09:02:45;;;;;;;3.83;2.13;;;;;;;19.08;29.11;101167.14;1755998;81;20959;-72
2022/09/07 09:05:32;;;;;;;4.23;2.30;;;;;;;19.16;28.81;101159.69;1755977;81;21231;-72
2022/09/07 09:08:17;;;;;;;3.63;2.13;;;;;;;19.19;27.89;101172.64;1783227;80;20955;-72
2022/09/07 09:11:13;;;;;;;2.90;1.73;;;;;;;19.18;28.63;101161.53;1825458;78;20967;-73
2022/09/07 09:13:55;;;;;;;3.90;2.07;;;;;;;19.21;29.10;101158.22;1793258;80;21354;-72
2022/09/07 09:16:43;;;;;;;3.87;1.95;;;;;;;19.30;28.56;101152.92;1811153;78;21450;-73
2022/09/07 09:19:42;;;;;;;6.53;1.97;;;;;;;19.33;28.41;101153.12;1793057;79;21888;-73
2022/09/07 09:22:16;;;;;;;3.60;2.13;;;;;;;19.37;28.70;101147.34;1825411;78;21002;-72
2022/09/07 09:24:47;;;;;;;4.13;2.57;;;;;;;19.38;28.10;101140.02;1813105;78;21001;-71
2022/09/07 09:27:15;;;;;;;4.70;2.45;;;;;;;19.36;27.65;101144.39;1825759;78;21044;-71
2022/09/07 09:29:43;;;;;;;5.17;2.43;;;;;;;19.31;28.34;101130.94;1825607;78;20984;-72
2022/09/07 09:32:40;;;;;;;4.67;2.70;;;;;;;19.45;28.70;101126.89;1825686;78;21551;-72
2022/09/07 09:35:32;;;;;;;4.00;2.57;;;;;;;19.58;28.62;101130.14;1825654;78;20978;-71
2022/09/07 09:38:02;;;;;;;4.23;2.63;;;;;;;19.75;28.60;101128.17;1825003;78;21033;-73
2022/09/07 09:40:34;;;;;;;5.23;2.77;;;;;;;19.84;28.09;101119.58;1824648;78;20955;-73
2022/09/07 09:43:21;;;;;;;5.13;2.30;;;;;;;19.87;28.44;101116.25;1825610;78;21032;-70
2022/09/07 09:45:51;;;;;;;4.97;2.77;;;;;;;19.93;28.02;101127.77;1825744;78;21051;-75
2022/09/07 09:48:32;;;;;;;3.77;2.37;;;;;;;19.91;27.66;101115.09;1825454;78;20993;-71
2022/09/07 09:51:00;;;;;;;3.98;2.50;;;;;;;20.00;28.29;101105.09;1826024;78;21019;-72
2022/09/07 09:53:34;;;;;;;4.23;2.50;;;;;;;20.13;27.85;101103.44;1825746;78;20978;-72
2022/09/07 09:56:02;;;;;;;4.13;2.53;;;;;;;20.27;27.17;101102.02;1825631;78;20960;-72
2022/09/07 09:58:36;;;;;;;5.20;2.97;;;;;;;20.37;27.68;101104.50;1824467;78;21230;-71
2022/09/07 10:01:09;;;;;;;4.47;2.50;;;;;;;20.38;27.76;101104.73;1825662;78;20945;-72
2022/09/07 10:03:36;;;;;;;5.23;3.07;;;;;;;20.26;27.33;101100.42;1825611;78;21102;-73
2022/09/07 10:06:07;;;;;;;5.87;2.80;;;;;;;20.04;27.04;101102.03;1825606;78;20996;-73
2022/09/07 10:08:35;;;;;;;6.53;2.90;;;;;;;19.98;27.49;101091.61;1826066;78;21052;-72
2022/09/07 10:11:10;;;;;;;4.80;3.10;;;;;;;20.07;27.67;101088.39;1742613;80;20999;-71
2022/09/07 10:13:54;;;;;;;5.33;2.70;;;;;;;20.19;27.29;101094.08;1825532;78;21079;-74
2022/09/07 10:16:40;;;;;;;5.63;3.00;;;;;;;20.29;27.37;101087.04;1825311;78;20950;-71
2022/09/07 10:19:10;;;;;;;5.27;3.23;;;;;;;20.42;27.81;101093.50;1825793;78;21036;-73
2022/09/07 10:21:37;;;;;;;5.93;3.40;;;;;;;20.53;27.66;101094.07;1759566;80;20991;-74
2022/09/07 10:24:12;;;;;;;6.17;3.47;;;;;;;20.55;27.10;101094.01;1813365;78;21081;-72
2022/09/07 10:26:43;;;;;;;7.17;3.70;;;;;;;20.47;27.87;101084.45;1793370;80;21114;-72
2022/09/07 10:29:33;;;;;;;5.30;3.70;;;;;;;20.53;27.93;101090.00;1825649;78;21503;-73
2022/09/07 10:32:22;;;;;;;6.27;3.50;;;;;;;20.56;27.31;101092.09;1798064;78;20969;-72
2022/09/07 10:35:22;;;;;;;6.60;3.90;;;;;;;20.51;27.50;101085.45;1791904;80;21176;-72
2022/09/07 10:38:17;;;;;;;7.20;3.60;;;;;;;20.43;26.95;101080.17;1825611;78;21133;-72
2022/09/07 10:40:55;;;;;;;7.10;4.50;;;;;;;20.37;27.79;101078.73;1825700;78;21023;-72
2022/09/07 10:43:48;;;;;;;6.10;3.90;;;;;;;20.36;27.37;101072.48;1825557;78;21034;-72
2022/09/07 10:46:56;;;;;;;6.07;3.67;;;;;;;20.45;27.25;101085.31;1825474;78;21004;-72
2022/09/07 10:49:27;;;;;;;6.97;3.80;;;;;;;20.39;26.43;101070.50;1824337;78;21040;-71
2022/09/07 10:52:14;;;;;;;5.42;3.27;;;;;;;20.33;26.81;101062.24;1826361;78;21899;-73
2022/09/07 10:54:52;;;;;;;5.73;3.57;;;;;;;20.31;26.73;101061.77;1804435;78;21097;-74
2022/09/07 10:57:29;;;;;;;6.40;3.90;;;;;;;20.34;26.75;101056.28;1825935;78;21560;-74
2022/09/07 11:00:15;;;;;;;6.27;3.93;;;;;;;20.41;27.04;101055.84;1825789;78;21492;-72
2022/09/07 11:03:26;;;;;;;7.20;3.67;;;;;;;20.50;26.97;101052.59;1825787;78;21051;-73
2022/09/07 11:06:17;;;;;;;6.73;3.90;;;;;;;20.59;26.81;101046.69;1728954;83;21354;-73
2022/09/07 11:09:18;;;;;;;5.95;3.77;;;;;;;20.65;27.31;101048.16;1793566;78;21070;-72
2022/09/07 11:11:58;;;;;;;6.63;3.63;;;;;;;20.75;27.13;101057.94;1825951;78;20962;-72
2022/09/07 11:14:27;;;;;;;5.95;3.30;;;;;;;20.83;26.71;101039.55;1825795;78;21055;-73
2022/09/07 11:17:04;;;;;;;6.77;3.87;;;;;;;20.89;26.41;101043.69;1825897;78;21017;-73
2022/09/07 11:19:45;;;;;;;5.97;3.80;;;;;;;20.92;26.25;101038.99;1825758;78;21547;-74
2022/09/07 11:22:38;;;;;;;5.20;3.20;;;;;;;20.82;26.04;101029.22;1809043;79;21039;-73
2022/09/07 11:25:22;;;;;;;5.30;3.33;;;;;;;20.74;26.39;101028.64;1791741;80;21502;-74
2022/09/07 11:28:09;;;;;;;6.00;3.30;;;;;;;20.80;26.26;101024.68;1791207;78;21089;-72
2022/09/07 11:30:46;;;;;;;4.87;2.90;;;;;;;20.90;26.36;101025.52;1776594;80;20995;-73
2022/09/07 11:33:18;;;;;;;4.70;3.03;;;;;;;20.96;26.52;101022.34;1749622;80;21200;-73
2022/09/07 11:36:12;;;;;;;6.47;3.03;;;;;;;20.93;26.16;101023.53;1793381;80;20964;-70
2022/09/07 11:39:01;;;;;;;5.03;3.30;;;;;;;20.80;25.46;101033.38;1790581;80;20962;-73
2022/09/07 11:41:43;;;;;;;5.17;3.13;;;;;;;20.62;25.26;101013.50;1792718;78;20968;-73
2022/09/07 11:44:39;;;;;;;5.62;3.30;;;;;;;20.59;25.58;101014.13;1807637;79;21093;-73
2022/09/07 11:47:35;;;;;;;5.03;2.80;;;;;;;20.65;25.73;101011.52;1746357;80;21398;-74
2022/09/07 11:50:02;;;;;;;5.07;3.10;;;;;;;20.65;25.94;101008.80;1771624;80;21032;-74
2022/09/07 11:52:39;;;;;;;5.30;2.77;;;;;;;20.64;25.92;100999.63;1793027;80;21103;-73
2022/09/07 11:55:10;;;;;;;4.57;2.50;;;;;;;20.68;26.19;100991.09;1761768;80;21119;-72
2022/09/07 11:57:58;;;;;;;4.70;3.00;;;;;;;20.79;25.86;100991.04;1800517;78;21104;-72
2022/09/07 12:00:33;;;;;;;5.70;2.90;;;;;;;20.87;25.70;100985.41;1793001;78;21686;-73
2022/09/07 12:03:41;;;;;;;4.47;2.70;;;;;;;20.84;25.80;100977.33;1788952;78;20941;-72
2022/09/07 12:06:41;;;;;;;4.83;2.80;;;;;;;20.78;25.92;100984.81;1793284;78;20996;-72